createdAt,value
2022-08-22T00:00:42.893Z,46.97
2022-08-22T00:02:58.378Z,47.46
2022-08-22T00:02:59.131Z,46.79
2022-08-22T00:05:47.171Z,46.96
2022-08-22T00:10:54.368Z,47.03
2022-08-22T00:16:01.576Z,47.15
2022-08-22T00:21:08.849Z,47.28
2022-08-22T00:26:16.162Z,47.53
2022-08-22T00:31:23.398Z,47.29
2022-08-22T00:36:30.630Z,47.31
2022-08-22T00:41:37.844Z,47.10
2022-08-22T00:46:45.040Z,47.05
2022-08-22T00:51:52.251Z,47.00
2022-08-22T00:56:59.429Z,47.19
2022-08-22T01:02:06.796Z,47.07
2022-08-22T01:07:14.029Z,46.84
2022-08-22T01:12:21.236Z,46.92
2022-08-22T01:17:28.461Z,46.83
2022-08-22T01:22:35.705Z,46.88
2022-08-22T01:27:42.887Z,46.76
2022-08-22T01:32:50.115Z,46.76
2022-08-22T01:37:57.534Z,46.67
2022-08-22T01:43:04.556Z,46.63
2022-08-22T01:48:11.702Z,46.47
2022-08-22T01:53:18.932Z,46.49
2022-08-22T01:58:26.121Z,46.53
2022-08-22T02:03:33.309Z,46.43
2022-08-22T02:08:40.580Z,46.49
2022-08-22T02:13:47.754Z,46.30
2022-08-22T02:18:54.973Z,46.59
2022-08-22T02:24:02.150Z,46.42
2022-08-22T02:29:09.362Z,46.37
2022-08-22T02:34:16.586Z,46.41
2022-08-22T02:39:23.758Z,46.32
2022-08-22T02:44:30.992Z,46.45
2022-08-22T02:49:43.762Z,46.33
2022-08-22T02:54:45.356Z,46.33
2022-08-22T02:59:52.619Z,46.40
2022-08-22T03:04:59.823Z,46.26
2022-08-22T03:10:07.032Z,46.42
2022-08-22T03:15:14.195Z,46.52
2022-08-22T03:20:21.368Z,46.33
2022-08-22T03:25:28.577Z,46.34
2022-08-22T03:30:35.744Z,46.33
2022-08-22T03:35:43.033Z,46.30
2022-08-22T03:40:50.231Z,46.32
2022-08-22T03:45:57.411Z,46.30
2022-08-22T03:51:04.559Z,46.16
2022-08-22T03:56:11.789Z,46.30
2022-08-22T04:01:19.021Z,46.43
2022-08-22T04:06:26.159Z,46.18
2022-08-22T04:11:33.334Z,46.71
2022-08-22T04:16:40.534Z,45.93
2022-08-22T04:21:47.711Z,46.19
2022-08-22T04:26:54.912Z,46.31
2022-08-22T04:32:02.155Z,46.18
2022-08-22T04:37:09.365Z,46.21
2022-08-22T04:42:32.345Z,46.53
2022-08-22T04:47:23.782Z,46.54
2022-08-22T04:52:31.009Z,46.82
2022-08-22T04:57:38.196Z,46.79
2022-08-22T05:02:45.469Z,46.95
2022-08-22T05:07:52.677Z,47.08
2022-08-22T05:12:59.847Z,47.15
2022-08-22T05:18:07.098Z,47.46
2022-08-22T05:23:16.962Z,47.32
2022-08-22T05:28:21.580Z,47.57
2022-08-22T05:33:28.804Z,47.98
2022-08-22T05:38:36.070Z,48.37
2022-08-22T05:43:43.261Z,48.78
2022-08-22T05:48:50.495Z,48.90
2022-08-22T05:53:57.770Z,49.05
2022-08-22T05:59:08.539Z,49.66
2022-08-22T06:04:12.404Z,49.40
2022-08-22T06:09:19.594Z,49.76
2022-08-22T06:14:26.799Z,50.01
2022-08-22T06:19:33.952Z,49.57
2022-08-22T06:24:41.205Z,49.72
2022-08-22T06:29:48.466Z,49.97
2022-08-22T06:34:55.625Z,51.01
2022-08-22T06:40:02.881Z,50.57
2022-08-22T06:45:10.031Z,50.77
2022-08-22T06:50:17.282Z,50.95
2022-08-22T06:55:24.435Z,51.54
2022-08-22T07:00:31.702Z,51.79
2022-08-22T07:05:38.934Z,51.55
2022-08-22T07:10:47.435Z,50.33
2022-08-22T07:15:54.684Z,50.16
2022-08-22T07:21:02.994Z,50.56
2022-08-22T07:26:10.172Z,50.53
2022-08-22T07:31:18.124Z,50.04
2022-08-22T07:36:28.389Z,49.87
2022-08-22T07:41:31.829Z,49.91
2022-08-22T07:46:39.032Z,49.86
2022-08-22T07:51:46.258Z,49.86
2022-08-22T07:56:53.508Z,49.65
2022-08-22T08:02:00.749Z,50.12
2022-08-22T08:07:07.977Z,50.23
2022-08-22T08:12:15.175Z,49.36
2022-08-22T08:17:22.361Z,48.90
2022-08-22T08:22:29.565Z,49.38
2022-08-22T08:27:36.793Z,49.34
2022-08-22T08:32:44.059Z,49.28
2022-08-22T08:37:51.279Z,49.05
2022-08-22T08:42:58.551Z,49.04
2022-08-22T08:48:06.003Z,48.93
2022-08-22T08:53:13.189Z,48.58
2022-08-22T08:58:20.443Z,48.63
2022-08-22T09:03:30.916Z,48.76
2022-08-22T09:08:34.838Z,48.92
2022-08-22T09:13:42.002Z,48.77
2022-08-22T09:18:49.184Z,48.57
2022-08-22T09:23:56.349Z,48.35
2022-08-22T09:29:03.558Z,48.43
2022-08-22T09:34:10.715Z,48.20
2022-08-22T09:39:17.962Z,48.46
2022-08-22T09:44:25.202Z,48.72
2022-08-22T09:49:32.417Z,48.66
2022-08-22T09:54:39.640Z,47.65
2022-08-22T09:59:46.823Z,47.65
2022-08-22T10:04:54.055Z,47.63
2022-08-22T10:10:01.348Z,47.77
2022-08-22T10:15:09.027Z,48.30
2022-08-22T10:20:15.799Z,48.79
2022-08-22T10:25:24.366Z,49.44
2022-08-22T10:30:31.559Z,49.89
2022-08-22T10:35:38.815Z,49.94
2022-08-22T10:40:46.084Z,49.51
2022-08-22T10:45:53.280Z,49.58
2022-08-22T10:51:00.519Z,49.29
2022-08-22T10:56:07.793Z,49.38
2022-08-22T11:01:38.635Z,49.35
2022-08-22T11:06:22.260Z,48.89
2022-08-22T11:11:32.921Z,48.58
2022-08-22T11:16:41.801Z,48.68
2022-08-22T11:21:43.911Z,48.89
2022-08-22T11:26:51.185Z,48.71
2022-08-22T11:32:00.381Z,48.50
2022-08-22T11:37:11.550Z,48.35
2022-08-22T11:42:12.862Z,48.11
2022-08-22T11:47:20.135Z,47.97
2022-08-22T11:52:27.754Z,48.02
2022-08-22T11:57:35.003Z,46.92
2022-08-22T12:02:42.311Z,46.67
2022-08-22T12:07:50.602Z,47.10
2022-08-22T12:12:56.767Z,47.26
2022-08-22T12:18:03.856Z,45.45
2022-08-22T12:23:11.051Z,46.36
2022-08-22T12:28:18.218Z,45.90
2022-08-22T12:33:25.378Z,45.51
2022-08-22T12:38:36.035Z,45.34
2022-08-22T12:43:42.492Z,44.22
2022-08-22T12:48:47.693Z,45.28
2022-08-22T12:53:54.283Z,45.45
2022-08-22T12:59:01.514Z,45.27
2022-08-22T13:04:08.830Z,44.95
2022-08-22T13:09:16.025Z,45.11
2022-08-22T13:14:25.933Z,45.07
2022-08-22T13:19:30.722Z,44.84
2022-08-22T13:24:38.422Z,44.93
2022-08-22T13:29:45.058Z,44.62
2022-08-22T13:34:52.188Z,44.36
2022-08-22T13:39:59.483Z,44.37
2022-08-22T13:45:06.544Z,44.26
2022-08-22T13:50:13.848Z,44.14
2022-08-22T13:55:21.463Z,44.10
2022-08-22T14:00:29.526Z,43.91
2022-08-22T14:05:35.932Z,43.84
2022-08-22T14:10:44.079Z,43.18
2022-08-22T14:15:50.375Z,43.21
2022-08-22T14:20:57.566Z,43.16
2022-08-22T14:26:04.804Z,43.41
2022-08-22T14:31:13.761Z,43.41
2022-08-22T14:36:19.247Z,42.81
2022-08-22T14:41:26.420Z,42.70
2022-08-22T14:46:33.604Z,42.51
2022-08-22T14:51:40.800Z,42.04
2022-08-22T14:56:48.014Z,42.02
2022-08-22T15:01:55.301Z,42.32
2022-08-22T15:07:02.462Z,42.44
2022-08-22T15:12:10.560Z,41.96
2022-08-22T15:17:17.330Z,42.13
2022-08-22T15:22:25.727Z,41.90
2022-08-22T15:27:31.348Z,41.59
2022-08-22T15:32:41.742Z,41.79
2022-08-22T15:37:45.880Z,41.57
2022-08-22T15:42:53.984Z,41.23
2022-08-22T15:48:00.292Z,40.95
2022-08-22T15:53:07.812Z,40.18
2022-08-22T15:58:14.757Z,40.66
2022-08-22T16:03:22.029Z,40.49
2022-08-22T16:08:29.639Z,40.30
2022-08-22T16:13:38.085Z,40.47
2022-08-22T16:18:43.608Z,40.15
2022-08-22T16:23:50.854Z,40.23
2022-08-22T16:28:59.057Z,40.26
2022-08-22T16:34:05.161Z,39.87
2022-08-22T16:39:12.399Z,39.97
2022-08-22T16:44:19.555Z,40.03
2022-08-22T16:49:26.805Z,40.06
2022-08-22T16:54:33.960Z,39.97
2022-08-22T16:59:41.126Z,40.17
2022-08-22T17:04:48.297Z,39.89
2022-08-22T17:09:55.493Z,39.70
2022-08-22T17:15:02.773Z,39.80
2022-08-22T17:20:09.890Z,39.45
2022-08-22T17:25:17.164Z,39.55
2022-08-22T17:30:24.407Z,39.71
2022-08-22T17:35:32.875Z,39.51
2022-08-22T17:40:38.935Z,39.37
2022-08-22T17:45:46.170Z,38.99
2022-08-22T17:50:53.427Z,39.27
2022-08-22T17:56:00.644Z,39.53
2022-08-22T18:01:07.924Z,39.25
2022-08-22T18:06:15.036Z,39.52
2022-08-22T18:11:22.293Z,39.83
2022-08-22T18:16:29.652Z,40.06
2022-08-22T18:21:36.986Z,40.28
2022-08-22T18:26:44.501Z,40.56
2022-08-22T18:31:51.866Z,40.83
2022-08-22T18:36:59.119Z,41.34
2022-08-22T18:42:07.106Z,41.52
2022-08-22T18:47:13.990Z,41.89
2022-08-22T18:52:21.552Z,41.18
2022-08-22T18:57:28.995Z,41.26
2022-08-22T19:02:36.579Z,41.75
2022-08-22T19:07:43.984Z,42.10
2022-08-22T19:12:51.597Z,42.59
2022-08-22T19:17:59.688Z,43.00
2022-08-22T19:23:06.840Z,43.19
2022-08-22T19:28:14.441Z,42.98
2022-08-22T19:33:29.298Z,42.75
2022-08-22T19:38:29.538Z,42.98
2022-08-22T19:43:36.877Z,42.64
2022-08-22T19:48:44.080Z,42.71
2022-08-22T19:53:51.271Z,43.24
2022-08-22T19:58:58.916Z,42.96
2022-08-22T20:04:06.819Z,42.72
2022-08-22T20:09:15.680Z,43.02
2022-08-22T20:14:29.976Z,43.04
2022-08-22T20:19:30.789Z,42.94
2022-08-22T20:24:40.305Z,43.54
2022-08-22T20:29:45.731Z,43.20
2022-08-22T20:34:53.078Z,43.35
2022-08-22T20:40:00.407Z,43.67
2022-08-22T20:45:12.182Z,43.59
2022-08-22T20:50:14.796Z,44.46
2022-08-22T20:55:22.249Z,44.74
2022-08-22T21:00:29.625Z,44.75
2022-08-22T21:05:36.870Z,43.66
2022-08-22T21:10:44.099Z,44.10
2022-08-22T21:15:51.329Z,43.87
2022-08-22T21:20:58.520Z,44.32
2022-08-22T21:26:05.707Z,44.41
2022-08-22T21:31:12.898Z,44.69
2022-08-22T21:36:20.102Z,44.51
2022-08-22T21:41:27.280Z,44.47
2022-08-22T21:46:34.552Z,43.34
2022-08-22T21:51:41.736Z,43.11
2022-08-22T21:56:48.917Z,42.91
2022-08-22T22:01:56.103Z,43.37
2022-08-22T22:07:04.628Z,42.61
2022-08-22T22:12:11.868Z,43.47
2022-08-22T22:17:19.061Z,43.12
2022-08-22T22:22:26.242Z,44.02
2022-08-22T22:27:33.517Z,43.87
2022-08-22T22:32:40.730Z,43.80
2022-08-22T22:37:47.876Z,43.90
2022-08-22T22:42:55.143Z,43.86
2022-08-22T22:48:02.372Z,44.14
2022-08-22T22:53:09.676Z,44.14
2022-08-22T22:58:19.300Z,44.13
2022-08-22T23:03:26.475Z,44.34
2022-08-22T23:08:33.677Z,44.44
2022-08-22T23:13:40.874Z,44.44
2022-08-22T23:18:48.121Z,44.53
2022-08-22T23:23:55.412Z,44.63
2022-08-22T23:29:02.612Z,44.75
2022-08-22T23:34:09.847Z,44.96
2022-08-22T23:39:17.020Z,45.09
2022-08-22T23:44:24.256Z,45.28
2022-08-22T23:49:31.491Z,45.40
2022-08-22T23:54:38.679Z,45.48
2022-08-22T23:59:47.899Z,45.39
